Airfield :
LOGIN :

Register | Disclaimer

   EN    FR    IT 

 










Legend :    VFR   Marginal VFR   IFR   Intensive IFR   Very Intensive IFR
Visi :
Ceiling :
>= 8 km
>= 3000ft
5 to 8 km
1000 to 3000 ft
1500m to 5 km
500 to 1000 ft
800 to 1500m
200 to 500 ft
< 800m
< 200 ft
Symbols :   Thunderstorms  Fog  Heavy snow  Heavy precipitations  Wind > 20 kt
SIGMETs :     Misc.  Thunderstorms  Icing  Turbulence  Mountain Waves  Volcanic Ashes






- Airport Elevation : 34 ft
- IATA code : BLK


EGNH - Blackpool

CURRENT METAR :
  • 221820Z 26012KT 9999 FEW020 SCT044 04/01 Q0991

EXPIRED METARs :
  • 221750Z 28009KT 9999 FEW030 05/02 Q0991
  • 221720Z 30009KT 9999 FEW045 05/02 Q0991
  • 221650Z 29010KT 9999 FEW046 05/02 Q0991
  • 221620Z 28011KT 9999 FEW040 05/02 Q0991
  • 221550Z 29012KT 9999 FEW025 05/02 Q0991

TAF TAF EGNH
Valid from the 22 at 18:00 until the 22 at 21:00 UTC


221652Z 2218/2221 28014KT 9999 SCT025
TEMPO 2218/2221 3000 SHRASN BKN010
ATIS : +44 1253 343 434 (x8315)



MET'MAP, your aeronautical weather chart ! - Copyright ORBIFLY December 2007 - Disclaimer

ORBIFLY MET'MAP TEAM :

Programming & Development : Alexandra Zaïnal
Concept & original design : Baudouin d'Aumeries
Assistance for programming : Marc-Olivier Méhu
Technical & hardware support : Manuel Goepfert

Contact : metmap@orbifly.com




SOURCES & CREDITS :

   NOAA